• Join FlightAware (Why Join?)
  • Login
  • US Flag 
10:34AM EDT


 

Airport Tracker/Info


-or-


 

Live Flight TrackerFlight Track Log ✈ JBU56 ✈ 18-Apr-2014 ✈ KIAD - KBOS

Flight Track Log - Related Links

Times and Time Zones

All times are in EDT time to prevent confusion due to time zone crossing. See the JBU56 flight status page for this flight to view local times or setup timezone preferences in your user account.

Time Position Orientation Groundspeed Altitude Reporting Facility
EDT Latitude Longitude Course Direction KTS MPH feet Rate Location/Type
08:33AM 39.0333 -77.5000 90° East 243 280 4,900  Level Potomac TRACON
08:34AM 39.0833 -77.4333 46° Northeast 298 343 7,900 1,980 Climbing Potomac TRACON
08:35AM 39.0323 -76.9388 77° East  Level FlightAware Approximate
08:36AM 39.0547 -76.8053 78° East  Level FlightAware Approximate
08:36AM 39.1539 -77.2617 62° Northeast 302 348 10,800  Level Washington Center
08:37AM 39.0667 -76.6704 90° East  Level FlightAware Approximate
08:37AM 39.1075 -77.1458 117° Southeast 292 336 12,300  Level Washington Center
08:38AM 39.0653 -77.0244 114° Southeast 325 374 15,000 2,400 Climbing Washington Center
08:39AM 39.0669 -76.8750 89° East 360 414 17,100 2,160 Climbing Washington Center
08:40AM 39.0892 -76.7389 78° East 377 434 19,300 2,040 Climbing Washington Center
08:41AM 39.1094 -76.5867 80° East 403 464 21,300 1,920 Climbing Washington Center
08:42AM 39.1272 -76.4292 82° East 423 487 23,200 1,680 Climbing Washington Center
08:43AM 39.1886 -76.2878 61° Northeast 434 499 24,700 1,620 Climbing Washington Center
08:44AM 39.2725 -76.1492 52° Northeast 450 518 26,400 1,500 Climbing Washington Center
08:45AM 39.3544 -76.0103 53° Northeast 471 542 27,800 1,200 Climbing Washington Center
08:46AM 39.4319 -75.8711 54° Northeast 484 557 28,900 540 Climbing Washington Center
08:47AM 39.5178 -75.7233 53° Northeast 495 570 29,000  Climbing Washington Center
08:48AM 39.6011 -75.5781 53° Northeast 495 570 29,000  Level Washington Center
08:49AM 39.6822 -75.4297 55° Northeast 500 575 29,000  Level Washington Center
08:50AM 39.7731 -75.2761 52° Northeast 492 566 29,000  Level New York Center
08:51AM 39.8606 -75.1114 55° Northeast 492 566 29,000  Level New York Center
08:52AM 39.9450 -74.9678 52° Northeast 500 575 29,000  Level New York Center
08:53AM 40.0311 -74.8292 51° Northeast 499 574 29,000  Level New York Center
08:54AM 40.1194 -74.6850 51° Northeast 499 574 29,000  Level New York Center
08:55AM 40.2053 -74.5431 52° Northeast 499 574 29,000  Level New York Center
08:56AM 40.2933 -74.3983 51° Northeast 499 574 29,000  Level New York Center
08:57AM 40.3789 -74.2556 52° Northeast 499 574 29,000 -480 Level New York Center
08:59AM 40.5328 -73.9997 52° Northeast 502 578 27,700 -720 Descending Boston Center
09:00AM 40.6161 -73.8592 52° Northeast 490 564 27,000 -360 Descending Boston Center
09:01AM 40.6986 -73.7178 52° Northeast 489 563 27,000  Level Boston Center
09:02AM 40.7822 -73.5764 52° Northeast 489 563 27,000 -300 Level Boston Center
09:03AM 40.8661 -73.4356 52° Northeast 489 563 26,500 -1,140 Descending Boston Center
09:04AM 40.9569 -73.3008 48° Northeast 473 544 24,700 -1,680 Descending Boston Center
09:05AM 41.0386 -73.1758 49° Northeast 454 522 23,100 -840 Descending Boston Center
09:06AM 41.1142 -73.0500 51° Northeast 443 510 23,000 -60 Descending Boston Center
09:07AM 41.1714 -72.9067 62° Northeast 442 509 23,000  Level Boston Center
09:08AM 41.2261 -72.7611 63° Northeast 442 509 23,000  Level Boston Center
09:09AM 41.2825 -72.6119 63° Northeast 442 509 23,000  Level Boston Center
09:10AM 41.3378 -72.4647 63° Northeast 442 509 23,000 -240 Level Boston Center
09:11AM 41.3942 -72.3164 63° Northeast 446 513 22,600 -1,140 Descending Boston Center
09:12AM 41.4486 -72.1717 63° Northeast 443 510 20,700 -1,980 Descending Boston Center
09:13AM 41.5081 -72.0156 63° Northeast 419 482 18,600 -1,680 Descending Boston Center
09:14AM 41.5583 -71.8819 63° Northeast 406 467 17,300 -1,800 Descending Boston Center
09:15AM 41.6092 -71.7433 64° Northeast 389 448 15,000 -1,920 Descending Boston Center
09:16AM 41.6539 -71.6206 64° Northeast 377 434 13,400 -1,620 Descending Boston Center
09:17AM 41.6992 -71.4994 63° Northeast 342 394 11,800 -1,200 Descending Boston Center
09:18AM 41.7422 -71.3964 61° Northeast 320 368 11,000 -420 Descending Boston Center
09:19AM 41.7906 -71.3025 55° Northeast 308 354 11,000  Level Boston Center
09:20AM 41.8569 -71.2478 32° Northeast 277 319 11,000 -660 Level Boston Center
09:21AM 41.9292 -71.2147 19° North 258 297 9,700 -1,440 Descending Boston Center
09:22AM 41.9931 -71.1847 19° North 248 285 8,100 -1,560 Descending Boston Center
09:23AM 42.0561 -71.1550 19° North 242 278 6,600 -1,380 Descending Boston Center
09:24AM 42.1164 -71.1258 20° North 234 269 5,300 -1,380 Descending Boston Center
09:25AM 42.1772 -71.0958 20° North 218 251 3,900 -1,260 Descending Boston Center
09:26AM 42.2308 -71.0706 19° North 200 230 2,800 -1,080 Descending Boston Center
09:27AM 42.2797 -71.0472 19° North 189 217 1,700 -960 Descending Boston Center
09:28AM 42.3136 -71.0311 19° North 155 178 900 -600 Descending Boston Center
09:29AM 42.3525 -71.0117 20° North 142 163 500 -420 Descending Boston Center
09:31AM 42.3500 -71.0000 North  Level FlightAware Approximate
09:38AM 42.3630 -71.0064 North  Level Estimated